Time;durP1;ratioP1;P1;durP2;ratioP2;P2;SDS_P1;SDS_P2;PMS_P1;PMS_P2;Temp;Humidity;BMP_temperature;BMP_pressure;BME280_temperature;BME280_humidity;BME280_pressure;Samples;Min_cycle;Max_cycle;Signal;HPM_P1;HPM_P2
2021/05/29 00:01:06;;;;;;;1.83;0.67;;;12.30;99.90;;;;;;5010200;28;20209;-61
2021/05/29 00:03:33;;;;;;;0.00;0.00;;;12.30;99.90;;;;;;5010045;28;20201;-60
2021/05/29 00:06:00;;;;;;;0.20;0.20;;;12.30;99.90;;;;;;5009995;28;20227;-61
2021/05/29 00:08:27;;;;;;;1.27;0.57;;;12.40;99.90;;;;;;5009630;28;20763;-63
2021/05/29 00:10:57;;;;;;;0.23;0.23;;;12.40;99.90;;;;;;5009747;28;20233;-60
2021/05/29 00:13:25;;;;;;;0.00;0.00;;;12.30;99.90;;;;;;5010994;28;20571;-61
2021/05/29 00:15:53;;;;;;;0.33;0.33;;;12.30;99.90;;;;;;5009849;28;20227;-64
2021/05/29 00:18:20;;;;;;;0.00;0.00;;;12.40;99.90;;;;;;5000404;28;20205;-61
2021/05/29 00:20:47;;;;;;;1.13;0.60;;;12.30;99.90;;;;;;5009046;28;20228;-61
2021/05/29 00:23:14;;;;;;;0.00;0.00;;;12.30;99.90;;;;;;5009886;28;20271;-61
2021/05/29 00:25:44;;;;;;;0.10;0.10;;;12.30;99.90;;;;;;5009659;28;20208;-61
2021/05/29 00:28:10;;;;;;;0.17;0.17;;;12.30;99.90;;;;;;5009571;28;20224;-62
2021/05/29 00:30:38;;;;;;;0.00;0.00;;;12.30;99.90;;;;;;5009839;28;20648;-61
2021/05/29 00:33:06;;;;;;;0.00;0.00;;;12.30;99.90;;;;;;5010027;28;20202;-61
2021/05/29 00:35:33;;;;;;;0.20;0.10;;;12.20;99.90;;;;;;5009685;28;20244;-60
2021/05/29 00:37:59;;;;;;;0.43;0.43;;;12.20;99.90;;;;;;5009504;28;20674;-61
2021/05/29 00:40:26;;;;;;;0.00;0.00;;;12.20;99.90;;;;;;5009533;28;20200;-60
2021/05/29 00:42:53;;;;;;;0.83;0.83;;;12.20;99.90;;;;;;5009911;28;20263;-63
2021/05/29 00:45:20;;;;;;;0.33;0.33;;;12.10;99.90;;;;;;4992712;28;20201;-62
2021/05/29 00:47:47;;;;;;;0.17;0.17;;;12.10;99.90;;;;;;5008699;28;20669;-62
2021/05/29 00:50:14;;;;;;;0.00;0.00;;;12.10;99.90;;;;;;5009569;28;20586;-61
2021/05/29 00:52:41;;;;;;;0.00;0.00;;;12.10;99.90;;;;;;5009337;28;20205;-61
2021/05/29 00:55:10;;;;;;;1.03;0.63;;;12.10;99.90;;;;;;5008814;28;20205;-60
2021/05/29 00:57:39;;;;;;;0.20;0.20;;;12.10;99.90;;;;;;5009535;28;20228;-63
2021/05/29 01:00:07;;;;;;;0.00;0.00;;;12.10;99.90;;;;;;5009633;28;20202;-67
2021/05/29 01:02:34;;;;;;;0.23;0.23;;;12.10;99.90;;;;;;5009344;28;20205;-63
2021/05/29 01:05:02;;;;;;;0.47;0.47;;;12.10;99.90;;;;;;5009303;28;20205;-64
2021/05/29 01:07:28;;;;;;;3.50;1.50;;;12.10;99.90;;;;;;5009411;28;20201;-62
2021/05/29 01:09:55;;;;;;;0.00;0.00;;;12.10;99.90;;;;;;5010372;28;20287;-61
2021/05/29 01:12:22;;;;;;;0.23;0.23;;;12.10;99.90;;;;;;5009903;28;20204;-64
2021/05/29 01:14:53;;;;;;;1.13;1.03;;;12.10;99.90;;;;;;5009495;28;20201;-65
2021/05/29 01:17:21;;;;;;;0.00;0.00;;;12.10;99.90;;;;;;5008344;28;20216;-60
2021/05/29 01:19:47;;;;;;;0.00;0.00;;;12.00;99.90;;;;;;5009175;28;20209;-63
2021/05/29 01:22:34;;;;;;;0.00;0.00;;;12.00;99.90;;;;;;5009092;28;20205;-61
2021/05/29 01:25:00;;;;;;;0.00;0.00;;;11.90;99.90;;;;;;5009213;28;20205;-61
2021/05/29 01:27:27;;;;;;;0.17;0.17;;;11.80;99.90;;;;;;5010108;28;20399;-64
2021/05/29 01:29:56;;;;;;;0.00;0.00;;;11.80;99.90;;;;;;5012760;28;20224;-61
2021/05/29 01:32:32;;;;;;;0.00;0.00;;;11.70;99.90;;;;;;5012593;28;20212;-64
2021/05/29 01:34:59;;;;;;;0.00;0.00;;;11.60;99.90;;;;;;5012823;28;20224;-66
2021/05/29 01:37:27;;;;;;;0.00;0.00;;;11.60;99.90;;;;;;5012807;28;20197;-66
2021/05/29 01:39:53;;;;;;;0.00;0.00;;;11.40;99.90;;;;;;5012721;28;20291;-60
2021/05/29 01:42:20;;;;;;;0.00;0.00;;;11.30;99.90;;;;;;5012905;28;20205;-64
2021/05/29 01:44:48;;;;;;;0.00;0.00;;;11.10;99.90;;;;;;5012636;28;20696;-64
2021/05/29 01:47:14;;;;;;;0.00;0.00;;;11.00;99.90;;;;;;5012693;28;20205;-63
2021/05/29 01:49:41;;;;;;;0.00;0.00;;;10.90;99.90;;;;;;5012459;28;20282;-63
2021/05/29 01:52:08;;;;;;;0.00;0.00;;;10.80;99.90;;;;;;5012311;28;20209;-62
2021/05/29 01:54:35;;;;;;;0.00;0.00;;;10.70;99.90;;;;;;5011596;28;20208;-63
2021/05/29 01:57:01;;;;;;;0.10;0.10;;;10.70;99.90;;;;;;5012142;28;20517;-64
2021/05/29 01:59:28;;;;;;;0.63;0.53;;;10.50;99.90;;;;;;5012122;28;20209;-64
2021/05/29 02:01:54;;;;;;;0.40;0.40;;;10.50;99.90;;;;;;5012031;28;20201;-63
2021/05/29 02:04:21;;;;;;;0.10;0.10;;;10.40;99.90;;;;;;5012155;28;20201;-63
2021/05/29 02:06:47;;;;;;;0.13;0.13;;;10.40;99.90;;;;;;5013274;28;20212;-61
2021/05/29 02:09:14;;;;;;;0.10;0.10;;;10.30;99.90;;;;;;5012000;28;20232;-61
2021/05/29 02:11:42;;;;;;;0.37;0.37;;;10.30;99.90;;;;;;5012036;28;20685;-61
2021/05/29 02:14:08;;;;;;;0.83;0.80;;;10.30;99.90;;;;;;5012306;28;20331;-61
2021/05/29 02:16:35;;;;;;;0.00;0.00;;;10.30;99.90;;;;;;5012201;28;20902;-60
2021/05/29 02:19:01;;;;;;;0.63;0.63;;;10.30;99.90;;;;;;5011944;28;20569;-62
2021/05/29 02:21:28;;;;;;;0.30;0.30;;;10.30;99.90;;;;;;5011899;28;20228;-63
2021/05/29 02:23:54;;;;;;;0.13;0.13;;;10.30;99.90;;;;;;5011587;28;20209;-63
2021/05/29 02:26:22;;;;;;;0.27;0.27;;;10.30;99.90;;;;;;5011459;28;20673;-63
2021/05/29 02:28:54;;;;;;;0.00;0.00;;;10.30;99.90;;;;;;5011607;28;20224;-62
2021/05/29 02:31:20;;;;;;;0.13;0.13;;;10.20;99.90;;;;;;5011627;28;20296;-61
2021/05/29 02:33:47;;;;;;;0.17;0.17;;;10.20;99.90;;;;;;5011403;28;20673;-62
2021/05/29 02:36:13;;;;;;;0.00;0.00;;;10.20;99.90;;;;;;5011481;28;20208;-62
2021/05/29 02:38:40;;;;;;;0.00;0.00;;;10.20;99.90;;;;;;5011276;28;20208;-63
2021/05/29 02:41:09;;;;;;;0.00;0.00;;;10.20;99.90;;;;;;5011840;28;20654;-62
2021/05/29 02:43:36;;;;;;;0.20;0.20;;;10.10;99.90;;;;;;5011631;28;20578;-62
2021/05/29 02:46:04;;;;;;;0.00;0.00;;;10.10;99.90;;;;;;5011197;28;20598;-63
2021/05/29 02:48:31;;;;;;;1.00;1.00;;;10.00;99.90;;;;;;5011097;28;20706;-63
2021/05/29 02:50:57;;;;;;;1.17;0.87;;;10.00;99.90;;;;;;5011361;28;20217;-64
2021/05/29 02:53:24;;;;;;;0.40;0.40;;;9.90;99.90;;;;;;5011280;28;20208;-65
2021/05/29 02:55:50;;;;;;;0.10;0.10;;;9.90;99.90;;;;;;5010624;28;20570;-63
2021/05/29 02:58:17;;;;;;;0.37;0.37;;;9.90;99.90;;;;;;5011147;28;20288;-61
2021/05/29 03:00:45;;;;;;;0.00;0.00;;;9.90;99.90;;;;;;5011525;28;20205;-62
2021/05/29 03:03:13;;;;;;;0.00;0.00;;;9.80;99.90;;;;;;5011817;28;20205;-61
2021/05/29 03:05:41;;;;;;;0.00;0.00;;;9.80;99.90;;;;;;5011311;28;20606;-61
2021/05/29 03:08:10;;;;;;;0.00;0.00;;;9.70;99.90;;;;;;5011490;28;20237;-60
2021/05/29 03:10:36;;;;;;;0.33;0.33;;;9.60;99.90;;;;;;5009976;28;20706;-61
2021/05/29 03:13:06;;;;;;;1.33;1.33;;;9.60;99.90;;;;;;5010785;28;20263;-60
2021/05/29 03:15:32;;;;;;;0.20;0.20;;;9.60;99.90;;;;;;5010796;28;20212;-61
2021/05/29 03:17:59;;;;;;;0.00;0.00;;;9.60;99.90;;;;;;5010526;28;20681;-61
2021/05/29 03:20:27;;;;;;;0.10;0.10;;;9.50;99.90;;;;;;5010854;28;20296;-61
2021/05/29 03:22:54;;;;;;;0.17;0.17;;;9.50;99.90;;;;;;5010647;28;20255;-61
2021/05/29 03:25:21;;;;;;;0.00;0.00;;;9.50;99.90;;;;;;5010664;28;20561;-62
2021/05/29 03:27:50;;;;;;;0.00;0.00;;;9.40;99.90;;;;;;5010656;28;20263;-61
2021/05/29 03:30:19;;;;;;;0.00;0.00;;;9.40;99.90;;;;;;5010859;28;20240;-61
2021/05/29 03:32:46;;;;;;;0.13;0.13;;;9.40;99.90;;;;;;4993600;28;20209;-61
2021/05/29 03:35:13;;;;;;;0.13;0.13;;;9.40;99.90;;;;;;5010612;28;20666;-61
2021/05/29 03:37:41;;;;;;;0.40;0.40;;;9.40;99.90;;;;;;5010468;28;20406;-62
2021/05/29 03:40:10;;;;;;;0.00;0.00;;;9.50;99.90;;;;;;5010510;28;20566;-63
2021/05/29 03:42:37;;;;;;;0.63;0.40;;;9.50;99.90;;;;;;5010320;28;20574;-62
2021/05/29 03:45:04;;;;;;;0.53;0.53;;;9.50;99.90;;;;;;5010284;28;20251;-61
2021/05/29 03:47:31;;;;;;;0.00;0.00;;;9.50;99.90;;;;;;5010462;28;20205;-66
2021/05/29 03:49:57;;;;;;;0.00;0.00;;;9.50;99.90;;;;;;5009756;28;20224;-62
2021/05/29 03:52:23;;;;;;;0.00;0.00;;;9.50;99.90;;;;;;5010331;28;20559;-63
2021/05/29 03:54:51;;;;;;;0.00;0.00;;;9.50;99.90;;;;;;5009442;28;20193;-61
2021/05/29 03:57:17;;;;;;;0.10;0.10;;;9.50;99.90;;;;;;5010143;28;20600;-62
2021/05/29 03:59:44;;;;;;;0.10;0.10;;;9.50;99.90;;;;;;4993420;28;20666;-64
2021/05/29 04:02:10;;;;;;;0.00;0.00;;;9.60;99.90;;;;;;5009093;28;20562;-62
2021/05/29 04:04:36;;;;;;;0.00;0.00;;;9.60;99.90;;;;;;5010266;28;20208;-61
2021/05/29 04:07:03;;;;;;;0.20;0.20;;;9.60;99.90;;;;;;5009895;28;20205;-61
2021/05/29 04:09:30;;;;;;;0.20;0.20;;;9.60;99.90;;;;;;5009650;28;20748;-61
2021/05/29 04:11:57;;;;;;;0.00;0.00;;;9.60;99.90;;;;;;5010168;28;20615;-60
2021/05/29 04:14:24;;;;;;;0.60;0.47;;;9.70;99.90;;;;;;5009779;28;20596;-60
2021/05/29 04:16:50;;;;;;;0.00;0.00;;;9.70;99.90;;;;;;5009850;28;20205;-60
2021/05/29 04:19:17;;;;;;;0.00;0.00;;;9.70;99.90;;;;;;5009698;28;20196;-60
2021/05/29 04:21:43;;;;;;;0.00;0.00;;;9.70;99.90;;;;;;5009711;28;20201;-61
2021/05/29 04:24:10;;;;;;;0.00;0.00;;;9.70;99.90;;;;;;5010193;28;20208;-61
2021/05/29 04:26:37;;;;;;;0.13;0.13;;;9.80;99.90;;;;;;5009447;28;20209;-61
2021/05/29 04:29:04;;;;;;;0.77;0.60;;;9.80;99.90;;;;;;5009030;28;20232;-60
2021/05/29 04:31:31;;;;;;;0.00;0.00;;;9.90;99.90;;;;;;5009573;28;20205;-61
2021/05/29 04:33:57;;;;;;;0.00;0.00;;;10.00;99.90;;;;;;5009687;28;20259;-60
2021/05/29 04:36:24;;;;;;;0.00;0.00;;;10.10;99.90;;;;;;5009728;28;20575;-61
2021/05/29 04:38:50;;;;;;;0.40;0.23;;;10.20;99.90;;;;;;5009506;28;20255;-60
2021/05/29 04:41:17;;;;;;;0.10;0.10;;;10.20;99.90;;;;;;5009516;28;20205;-60
2021/05/29 04:43:43;;;;;;;0.33;0.27;;;10.30;99.90;;;;;;5009757;28;20213;-60
2021/05/29 04:46:10;;;;;;;0.87;0.87;;;10.30;99.90;;;;;;5009662;28;20216;-61
2021/05/29 04:48:37;;;;;;;0.00;0.00;;;10.40;99.90;;;;;;5009954;28;20279;-61
2021/05/29 04:51:13;;;;;;;0.23;0.23;;;10.50;99.90;;;;;;5009737;28;20193;-61
2021/05/29 04:53:40;;;;;;;0.63;0.63;;;10.60;99.90;;;;;;5009356;28;20197;-62
2021/05/29 04:56:07;;;;;;;1.37;1.27;;;10.60;99.90;;;;;;5009453;28;20201;-61
2021/05/29 04:58:34;;;;;;;0.00;0.00;;;10.70;99.90;;;;;;5009740;28;20208;-61
2021/05/29 05:01:00;;;;;;;0.13;0.13;;;10.90;99.90;;;;;;5009615;28;20209;-61
2021/05/29 05:03:27;;;;;;;0.87;0.87;;;11.00;99.90;;;;;;5011843;28;20236;-60
2021/05/29 05:05:54;;;;;;;1.00;0.97;;;11.10;99.90;;;;;;5013183;28;20413;-61
2021/05/29 05:08:20;;;;;;;0.57;0.57;;;11.20;99.90;;;;;;5013066;28;20259;-61
2021/05/29 05:10:47;;;;;;;0.00;0.00;;;11.30;99.90;;;;;;5013051;28;20228;-61
2021/05/29 05:13:13;;;;;;;0.53;0.30;;;11.30;99.90;;;;;;5012956;28;20213;-61
2021/05/29 05:15:40;;;;;;;0.00;0.00;;;11.50;99.90;;;;;;5012923;28;20866;-61
2021/05/29 05:18:08;;;;;;;0.30;0.30;;;11.50;99.90;;;;;;5013062;28;20201;-61
2021/05/29 05:20:36;;;;;;;0.53;0.43;;;11.60;99.90;;;;;;5013491;28;20216;-61
2021/05/29 05:23:03;;;;;;;0.00;0.00;;;11.70;99.90;;;;;;5012373;28;20205;-63
2021/05/29 05:25:31;;;;;;;0.63;0.63;;;11.80;99.90;;;;;;5013012;28;20212;-61
2021/05/29 05:27:58;;;;;;;0.63;0.63;;;11.90;99.90;;;;;;5012728;28;20662;-61
2021/05/29 05:30:25;;;;;;;1.20;0.83;;;12.00;99.90;;;;;;5012706;28;20228;-61
2021/05/29 05:32:52;;;;;;;0.30;0.30;;;12.10;99.90;;;;;;5012630;28;20209;-61
2021/05/29 05:35:21;;;;;;;0.50;0.50;;;12.30;99.90;;;;;;5012618;28;20217;-61
2021/05/29 05:37:49;;;;;;;0.00;0.00;;;12.40;99.90;;;;;;5012547;28;20204;-61
2021/05/29 05:40:16;;;;;;;0.00;0.00;;;12.50;99.90;;;;;;5012723;28;20216;-61
2021/05/29 05:42:43;;;;;;;0.00;0.00;;;12.60;99.90;;;;;;5012576;28;20201;-61
2021/05/29 05:45:10;;;;;;;0.70;0.70;;;12.70;99.90;;;;;;5012639;28;20216;-61
2021/05/29 05:47:37;;;;;;;0.90;0.87;;;12.80;99.90;;;;;;5012034;28;20201;-61
2021/05/29 05:50:04;;;;;;;0.00;0.00;;;12.90;99.90;;;;;;5011507;28;20236;-61
2021/05/29 05:52:31;;;;;;;1.00;0.93;;;13.20;99.90;;;;;;5012352;28;20205;-61
2021/05/29 05:54:58;;;;;;;0.30;0.30;;;13.80;99.90;;;;;;5012792;28;20227;-61
2021/05/29 05:57:25;;;;;;;0.10;0.10;;;14.40;99.90;;;;;;5012118;28;20565;-61
2021/05/29 05:59:51;;;;;;;1.03;1.03;;;15.20;99.90;;;;;;5012167;28;20231;-61
2021/05/29 06:02:17;;;;;;;0.00;0.00;;;16.00;99.90;;;;;;5012199;28;20205;-61
2021/05/29 06:04:44;;;;;;;0.07;0.07;;;16.60;99.90;;;;;;5012046;28;20201;-62
2021/05/29 06:07:10;;;;;;;0.00;0.00;;;17.20;99.90;;;;;;5011947;28;20204;-62
2021/05/29 06:09:37;;;;;;;6.23;0.63;;;17.80;99.90;;;;;;5011840;28;20233;-62
2021/05/29 06:12:05;;;;;;;0.10;0.10;;;18.40;99.90;;;;;;4994968;28;20221;-62
2021/05/29 06:20:00;;;;;;;0.35;0.17;;;19.20;99.90;;;;;;5012359;28;20558;-62
2021/05/29 06:22:27;;;;;;;0.20;0.20;;;19.40;99.90;;;;;;5010983;28;20654;-62
2021/05/29 06:24:53;;;;;;;0.00;0.00;;;19.50;99.90;;;;;;5011672;28;20216;-62
2021/05/29 06:27:20;;;;;;;0.00;0.00;;;19.90;99.90;;;;;;5011795;28;20216;-61
2021/05/29 06:29:47;;;;;;;0.40;0.40;;;20.20;99.90;;;;;;5011671;28;20231;-62
2021/05/29 06:32:13;;;;;;;0.00;0.00;;;20.40;99.90;;;;;;5011756;28;20232;-62
2021/05/29 06:34:40;;;;;;;1.17;0.95;;;20.50;99.90;;;;;;5011321;28;20196;-63
2021/05/29 06:37:07;;;;;;;0.20;0.20;;;20.60;99.90;;;;;;5011846;28;20220;-62
2021/05/29 06:39:34;;;;;;;0.82;0.82;;;20.70;99.90;;;;;;5011637;28;20208;-62
2021/05/29 06:42:01;;;;;;;0.15;0.10;;;20.90;99.90;;;;;;5011309;28;20663;-62
2021/05/29 06:44:28;;;;;;;0.32;0.32;;;21.10;99.90;;;;;;4995875;28;20193;-63
2021/05/29 06:46:55;;;;;;;0.95;0.70;;;21.20;99.90;;;;;;5011442;28;20662;-62
2021/05/29 06:49:22;;;;;;;0.47;0.20;;;21.20;99.90;;;;;;5011232;28;20717;-62
2021/05/29 06:51:58;;;;;;;0.10;0.10;;;21.00;99.90;;;;;;5012241;28;20220;-62
2021/05/29 06:54:35;;;;;;;0.30;0.30;;;20.90;99.90;;;;;;5010623;28;20239;-62
2021/05/29 06:59:56;;;;;;;5.90;0.32;;;21.40;99.90;;;;;;4973471;28;20253;-63
2021/05/29 07:02:22;;;;;;;0.30;0.20;;;21.80;99.90;;;;;;5007837;28;20205;-63
2021/05/29 07:04:51;;;;;;;0.00;0.00;;;21.80;99.90;;;;;;5011247;28;20217;-63
2021/05/29 07:07:17;;;;;;;0.50;0.38;;;21.90;99.90;;;;;;5011150;28;20291;-62
2021/05/29 07:09:44;;;;;;;1.20;0.65;;;22.20;99.90;;;;;;5010596;28;20247;-62
2021/05/29 07:12:11;;;;;;;0.32;0.32;;;22.50;99.90;;;;;;5011033;28;20196;-62
2021/05/29 07:14:37;;;;;;;0.00;0.00;;;22.60;99.90;;;;;;5011106;28;20213;-63
2021/05/29 07:17:07;;;;;;;0.25;0.10;;;22.70;99.90;;;;;;5011309;28;20213;-62
2021/05/29 07:19:34;;;;;;;0.00;0.00;;;22.80;99.90;;;;;;4993854;28;20779;-63
2021/05/29 07:22:02;;;;;;;0.10;0.10;;;22.80;99.90;;;;;;5010727;28;20205;-63
2021/05/29 07:24:30;;;;;;;0.00;0.00;;;22.50;99.90;;;;;;5010487;28;20215;-62
2021/05/29 07:26:57;;;;;;;0.00;0.00;;;22.70;99.90;;;;;;5010256;28;20728;-63
2021/05/29 07:29:24;;;;;;;0.20;0.20;;;22.90;99.90;;;;;;5010599;28;20240;-62
2021/05/29 07:31:51;;;;;;;0.40;0.32;;;23.00;99.90;;;;;;5010501;28;20717;-63
2021/05/29 07:34:19;;;;;;;0.38;0.35;;;23.30;99.90;;;;;;5010481;28;20573;-63
2021/05/29 07:36:45;;;;;;;0.40;0.10;;;23.60;99.90;;;;;;5010410;28;20196;-63
2021/05/29 07:39:12;;;;;;;0.00;0.00;;;23.90;99.90;;;;;;5010558;28;20201;-63
2021/05/29 07:41:39;;;;;;;0.00;0.00;;;24.30;99.90;;;;;;5010574;28;20201;-64
2021/05/29 07:44:06;;;;;;;1.00;0.80;;;24.50;99.90;;;;;;5010686;28;20247;-63
2021/05/29 07:46:34;;;;;;;0.00;0.00;;;24.30;99.90;;;;;;5012139;28;20188;-63
2021/05/29 07:49:01;;;;;;;0.00;0.00;;;24.20;99.90;;;;;;5009549;28;20709;-63
2021/05/29 07:51:28;;;;;;;0.00;0.00;;;24.20;99.90;;;;;;5010346;28;20204;-63
2021/05/29 07:53:55;;;;;;;0.00;0.00;;;24.50;99.90;;;;;;5010107;28;20216;-63
2021/05/29 07:56:22;;;;;;;0.00;0.00;;;25.00;99.90;;;;;;5009439;28;20255;-63
2021/05/29 07:58:49;;;;;;;0.00;0.00;;;25.10;99.90;;;;;;5010231;28;20570;-63
2021/05/29 08:01:16;;;;;;;0.00;0.00;;;25.20;99.90;;;;;;5009902;28;20552;-63
2021/05/29 08:03:43;;;;;;;0.00;0.00;;;25.70;99.90;;;;;;5009925;28;20201;-64
2021/05/29 08:06:14;;;;;;;0.00;0.00;;;26.60;99.90;;;;;;5009869;28;20254;-63
2021/05/29 08:08:41;;;;;;;0.43;0.43;;;26.40;99.90;;;;;;5009736;28;20252;-64
2021/05/29 08:11:15;;;;;;;0.00;0.00;;;26.30;99.90;;;;;;5009849;28;20239;-64
2021/05/29 08:13:41;;;;;;;0.32;0.32;;;26.60;99.90;;;;;;5009822;28;20255;-63
2021/05/29 08:16:08;;;;;;;0.98;0.93;;;26.70;99.90;;;;;;5010353;28;20205;-63
2021/05/29 08:18:35;;;;;;;0.00;0.00;;;26.40;99.90;;;;;;5010176;28;20561;-63
2021/05/29 08:21:01;;;;;;;0.80;0.80;;;26.30;99.90;;;;;;5009496;28;20569;-64
2021/05/29 08:23:28;;;;;;;0.00;0.00;;;26.40;99.90;;;;;;5009592;28;20244;-64
2021/05/29 08:25:55;;;;;;;0.32;0.32;;;26.30;99.90;;;;;;5009732;28;20681;-64
2021/05/29 08:28:21;;;;;;;0.13;0.13;;;26.20;99.90;;;;;;5009455;28;20658;-63
2021/05/29 08:30:48;;;;;;;0.10;0.10;;;26.00;99.90;;;;;;5009938;28;20562;-65
2021/05/29 08:33:15;;;;;;;0.08;0.08;;;25.90;99.90;;;;;;5009860;28;20229;-63
2021/05/29 08:35:41;;;;;;;0.05;0.05;;;25.20;99.90;;;;;;5009808;28;20196;-68
2021/05/29 08:38:08;;;;;;;1.00;0.43;;;25.00;99.90;;;;;;5013673;28;20586;-64
2021/05/29 08:40:34;;;;;;;0.00;0.00;;;25.40;99.90;;;;;;5014438;28;20197;-65
2021/05/29 08:43:02;;;;;;;0.22;0.22;;;25.40;99.90;;;;;;5014071;28;20201;-69
2021/05/29 08:45:28;;;;;;;0.00;0.00;;;25.40;99.90;;;;;;5013773;28;20211;-67
2021/05/29 08:47:55;;;;;;;0.52;0.00;;;25.80;99.90;;;;;;5013775;28;20566;-63
2021/05/29 08:50:22;;;;;;;0.60;0.60;;;26.10;99.90;;;;;;5013106;28;20229;-63
2021/05/29 08:52:48;;;;;;;0.00;0.00;;;26.00;99.90;;;;;;5013491;28;20625;-62
2021/05/29 08:55:16;;;;;;;0.00;0.00;;;25.90;99.90;;;;;;5013278;28;20201;-63
2021/05/29 08:57:44;;;;;;;0.00;0.00;;;25.80;99.90;;;;;;5013343;28;20604;-62
2021/05/29 09:00:16;;;;;;;0.80;0.75;;;25.40;99.90;;;;;;5013410;28;20663;-64
2021/05/29 09:03:04;;;;;;;0.00;0.00;;;25.40;99.90;;;;;;5013064;28;20204;-63
2021/05/29 09:05:37;;;;;;;0.00;0.00;;;25.40;99.90;;;;;;5013154;28;20197;-63
2021/05/29 09:08:05;;;;;;;0.13;0.13;;;25.30;99.90;;;;;;5013564;28;20558;-64
2021/05/29 09:10:34;;;;;;;0.00;0.00;;;25.90;99.90;;;;;;5013022;28;20232;-64
2021/05/29 09:13:07;;;;;;;0.20;0.20;;;25.90;99.90;;;;;;4996718;28;20205;-64
2021/05/29 09:15:59;;;;;;;0.00;0.00;;;25.80;99.90;;;;;;5012767;28;20205;-63
2021/05/29 09:18:32;;;;;;;0.63;0.63;;;25.90;99.90;;;;;;4989938;28;20209;-64
2021/05/29 09:21:18;;;;;;;0.52;0.52;;;25.70;99.90;;;;;;5012638;28;20209;-64
2021/05/29 09:23:46;;;;;;;0.25;0.20;;;25.80;99.90;;;;;;4996210;28;20198;-63
2021/05/29 09:26:12;;;;;;;1.10;1.02;;;26.00;99.90;;;;;;5012410;28;20569;-63
2021/05/29 09:28:42;;;;;;;0.30;0.17;;;25.50;99.90;;;;;;5013205;28;20523;-63
2021/05/29 09:31:13;;;;;;;0.30;0.30;;;25.60;99.90;;;;;;5012934;28;20197;-64
2021/05/29 09:33:39;;;;;;;1.20;1.10;;;25.80;99.90;;;;;;5012645;28;20220;-63
2021/05/29 09:36:09;;;;;;;0.00;0.00;;;25.90;99.90;;;;;;5012740;28;20205;-64
2021/05/29 09:38:38;;;;;;;0.60;0.60;;;26.00;99.90;;;;;;5012613;28;20212;-63
2021/05/29 09:41:07;;;;;;;0.35;0.32;;;26.00;99.90;;;;;;5014014;28;20205;-65
2021/05/29 09:43:52;;;;;;;0.20;0.20;;;25.40;99.90;;;;;;5012587;28;20205;-66
2021/05/29 09:46:19;;;;;;;0.60;0.32;;;25.40;99.90;;;;;;5012673;28;20275;-62
2021/05/29 09:48:54;;;;;;;0.10;0.10;;;25.40;99.90;;;;;;5011657;28;20212;-64
2021/05/29 09:51:21;;;;;;;1.20;0.63;;;25.50;99.90;;;;;;5012376;28;20207;-63
2021/05/29 09:53:49;;;;;;;0.10;0.10;;;26.00;99.90;;;;;;5012216;28;20205;-64
2021/05/29 09:56:29;;;;;;;0.32;0.32;;;26.40;99.90;;;;;;5011784;28;20658;-63
2021/05/29 09:59:01;;;;;;;0.00;0.00;;;26.50;99.90;;;;;;4995807;28;20204;-63
2021/05/29 10:01:49;;;;;;;0.00;0.00;;;26.40;99.90;;;;;;5012279;28;20237;-63
2021/05/29 10:04:31;;;;;;;0.00;0.00;;;26.30;99.90;;;;;;4995136;28;20674;-64
2021/05/29 10:07:00;;;;;;;0.05;0.05;;;26.00;99.90;;;;;;4994989;28;20664;-64
2021/05/29 10:09:27;;;;;;;0.47;0.47;;;26.00;99.90;;;;;;5011603;28;20271;-65
2021/05/29 10:11:54;;;;;;;0.15;0.15;;;25.70;99.90;;;;;;5012126;28;20291;-63
2021/05/29 10:14:21;;;;;;;1.00;0.65;;;25.80;99.90;;;;;;5011599;28;20209;-63
2021/05/29 10:16:49;;;;;;;0.00;0.00;;;26.20;99.90;;;;;;5011740;28;20666;-66
2021/05/29 10:19:20;;;;;;;0.00;0.00;;;26.60;99.90;;;;;;5011951;28;20236;-64
2021/05/29 10:21:47;;;;;;;0.32;0.32;;;26.80;99.90;;;;;;5011881;28;20295;-63
2021/05/29 10:24:13;;;;;;;1.55;0.68;;;26.50;99.90;;;;;;5011960;28;20566;-63
2021/05/29 10:26:40;;;;;;;0.80;0.52;;;26.50;99.90;;;;;;5011725;28;20204;-64
2021/05/29 10:29:08;;;;;;;0.20;0.20;;;25.80;99.90;;;;;;5011580;28;20694;-64
2021/05/29 10:31:36;;;;;;;3.17;1.48;;;25.90;99.90;;;;;;5011426;28;20201;-63
2021/05/29 10:34:05;;;;;;;0.00;0.00;;;25.60;99.90;;;;;;5012199;28;20200;-63
2021/05/29 10:36:40;;;;;;;2.85;2.55;;;25.80;99.90;;;;;;5010718;28;20209;-64
2021/05/29 10:39:09;;;;;;;0.82;0.73;;;26.10;99.90;;;;;;5011290;28;20530;-64
2021/05/29 10:41:59;;;;;;;0.93;0.88;;;26.70;99.90;;;;;;5011650;28;20232;-64
2021/05/29 10:44:37;;;;;;;0.00;0.00;;;25.90;99.90;;;;;;5011341;28;20692;-63
2021/05/29 10:47:10;;;;;;;0.47;0.20;;;25.90;99.90;;;;;;5010945;28;20200;-63
2021/05/29 10:49:56;;;;;;;1.33;1.23;;;26.00;99.90;;;;;;5010442;28;20232;-65
2021/05/29 10:52:53;;;;;;;0.68;0.68;;;26.00;99.90;;;;;;5011668;28;20204;-63
2021/05/29 10:55:27;;;;;;;2.42;0.90;;;25.90;99.90;;;;;;5008828;28;20205;-63
2021/05/29 10:57:59;;;;;;;1.65;0.93;;;25.70;99.90;;;;;;5010722;28;20319;-62
2021/05/29 11:00:51;;;;;;;1.90;0.88;;;25.30;99.90;;;;;;5010178;28;20679;-63
2021/05/29 11:03:22;;;;;;;0.38;0.38;;;25.30;99.90;;;;;;5010880;28;20205;-63
2021/05/29 11:05:51;;;;;;;0.20;0.20;;;25.30;99.90;;;;;;5011134;28;20209;-63
2021/05/29 11:09:02;;;;;;;4.18;2.60;;;25.50;99.90;;;;;;5010856;28;20216;-63
2021/05/29 11:11:54;;;;;;;0.00;0.00;;;25.50;99.90;;;;;;5010956;28;20208;-63
2021/05/29 11:14:22;;;;;;;0.88;0.88;;;25.90;99.90;;;;;;5010225;28;20624;-63
2021/05/29 11:17:12;;;;;;;0.20;0.20;;;25.60;99.90;;;;;;5011395;28;20208;-63
2021/05/29 11:19:40;;;;;;;0.30;0.30;;;26.20;99.90;;;;;;5010726;28;20209;-63
2021/05/29 11:22:11;;;;;;;0.20;0.20;;;25.80;99.90;;;;;;5010903;28;20678;-63
2021/05/29 11:24:39;;;;;;;2.13;0.73;;;25.80;99.90;;;;;;5010735;28;20247;-64
2021/05/29 11:27:08;;;;;;;0.00;0.00;;;26.40;99.90;;;;;;5011024;28;20288;-64
2021/05/29 11:29:52;;;;;;;0.20;0.20;;;27.10;99.90;;;;;;5010431;28;20639;-64
2021/05/29 11:32:42;;;;;;;0.10;0.08;;;27.90;99.90;;;;;;5010636;28;20204;-63
2021/05/29 11:35:17;;;;;;;0.65;0.45;;;27.40;99.90;;;;;;5011710;28;20213;-63
2021/05/29 11:37:56;;;;;;;0.00;0.00;;;27.40;99.90;;;;;;5010473;28;20212;-63
2021/05/29 11:40:22;;;;;;;0.10;0.10;;;27.30;99.90;;;;;;5010356;28;20209;-62
2021/05/29 11:42:49;;;;;;;0.00;0.00;;;26.80;99.50;;;;;;5010377;28;20204;-63
2021/05/29 11:45:16;;;;;;;0.00;0.00;;;26.50;99.80;;;;;;5010434;28;20599;-63
2021/05/29 11:47:43;;;;;;;0.20;0.20;;;26.80;99.90;;;;;;5010180;28;20264;-62
2021/05/29 11:50:15;;;;;;;0.60;0.20;;;26.40;98.10;;;;;;5010251;28;20243;-63
2021/05/29 11:52:45;;;;;;;0.03;0.03;;;25.90;97.20;;;;;;5010170;28;20197;-63
2021/05/29 11:55:14;;;;;;;0.25;0.25;;;25.70;99.20;;;;;;5009514;28;20726;-64
2021/05/29 11:57:57;;;;;;;0.00;0.00;;;25.50;99.90;;;;;;4993005;28;20237;-63
2021/05/29 12:00:25;;;;;;;0.40;0.30;;;25.30;99.90;;;;;;4993214;28;20248;-62
2021/05/29 12:02:52;;;;;;;0.00;0.00;;;25.00;99.90;;;;;;5010165;28;20221;-62
2021/05/29 12:05:19;;;;;;;0.00;0.00;;;25.50;99.90;;;;;;5010018;28;20642;-63
2021/05/29 12:08:02;;;;;;;0.80;0.30;;;25.70;99.50;;;;;;5009753;28;20205;-63
2021/05/29 12:10:48;;;;;;;0.60;0.57;;;25.60;99.90;;;;;;5009405;28;20236;-64
2021/05/29 12:13:25;;;;;;;0.00;0.00;;;26.00;99.90;;;;;;5010067;28;20201;-63
2021/05/29 12:15:57;;;;;;;0.22;0.22;;;26.20;99.90;;;;;;5009802;28;20208;-63
2021/05/29 12:18:24;;;;;;;0.00;0.00;;;25.80;99.90;;;;;;5009753;28;20223;-63
2021/05/29 12:20:59;;;;;;;0.63;0.57;;;25.90;99.90;;;;;;5009664;28;20211;-63
2021/05/29 12:23:26;;;;;;;0.05;0.05;;;26.60;99.90;;;;;;5009762;28;20343;-64
2021/05/29 12:25:53;;;;;;;1.90;0.20;;;26.40;99.90;;;;;;5009512;28;20251;-63
2021/05/29 12:28:23;;;;;;;1.00;1.00;;;26.00;99.90;;;;;;5009288;28;20681;-63
2021/05/29 12:30:53;;;;;;;0.88;0.60;;;25.80;99.90;;;;;;5010691;28;20201;-63
2021/05/29 12:33:22;;;;;;;0.93;0.80;;;25.40;99.90;;;;;;5009375;28;20201;-63
2021/05/29 12:35:49;;;;;;;0.08;0.08;;;24.90;99.90;;;;;;5009710;28;20205;-64
2021/05/29 12:38:17;;;;;;;0.10;0.10;;;24.90;99.90;;;;;;5009701;28;20681;-63
2021/05/29 12:40:58;;;;;;;0.32;0.32;;;25.50;99.90;;;;;;5008510;28;20638;-63
2021/05/29 12:43:26;;;;;;;0.03;0.03;;;25.80;99.90;;;;;;5009154;28;20197;-63
2021/05/29 12:45:52;;;;;;;0.03;0.03;;;26.20;99.90;;;;;;5009251;28;20238;-64
2021/05/29 12:48:19;;;;;;;0.35;0.35;;;26.40;99.90;;;;;;5009530;28;20220;-63
2021/05/29 12:51:09;;;;;;;0.73;0.35;;;26.30;99.90;;;;;;5009439;28;20209;-63
2021/05/29 12:53:38;;;;;;;0.75;0.20;;;25.80;99.90;;;;;;5009742;28;20212;-62
2021/05/29 12:56:11;;;;;;;0.65;0.65;;;25.80;99.90;;;;;;5009130;28;20240;-63
2021/05/29 12:58:38;;;;;;;0.43;0.40;;;26.30;99.90;;;;;;5009686;28;20201;-65
2021/05/29 13:09:36;;;;;;;1.17;0.75;;;26.40;99.90;;;;;;5009259;28;20373;-63
2021/05/29 13:12:11;;;;;;;0.35;0.13;;;26.20;99.90;;;;;;5009175;28;20205;-63
2021/05/29 13:14:38;;;;;;;0.17;0.17;;;26.30;99.90;;;;;;5009288;28;20208;-64